sensor_id;sensor_type;location;lat;lon;timestamp;temperature;humidity
5304;DHT22;2674;49.722;10.892;2023-05-29T00:00:17;14.50;1.00
5304;DHT22;2674;49.722;10.892;2023-05-29T00:02:43;14.40;1.00
5304;DHT22;2674;49.722;10.892;2023-05-29T00:05:11;14.20;1.00
5304;DHT22;2674;49.722;10.892;2023-05-29T00:07:38;14.00;1.00
5304;DHT22;2674;49.722;10.892;2023-05-29T00:10:06;13.90;1.00
5304;DHT22;2674;49.722;10.892;2023-05-29T00:12:32;13.70;1.00
5304;DHT22;2674;49.722;10.892;2023-05-29T00:14:58;13.60;1.00
5304;DHT22;2674;49.722;10.892;2023-05-29T00:17:25;13.60;1.00
5304;DHT22;2674;49.722;10.892;2023-05-29T00:19:50;13.50;1.00
5304;DHT22;2674;49.722;10.892;2023-05-29T00:22:16;13.30;1.00
5304;DHT22;2674;49.722;10.892;2023-05-29T00:24:42;13.30;1.00
5304;DHT22;2674;49.722;10.892;2023-05-29T00:27:09;13.20;1.00
5304;DHT22;2674;49.722;10.892;2023-05-29T00:29:38;13.10;1.00
5304;DHT22;2674;49.722;10.892;2023-05-29T00:32:04;13.00;1.00
5304;DHT22;2674;49.722;10.892;2023-05-29T00:34:31;13.00;1.00
5304;DHT22;2674;49.722;10.892;2023-05-29T00:36:57;13.00;1.00
5304;DHT22;2674;49.722;10.892;2023-05-29T00:39:23;12.90;1.00
5304;DHT22;2674;49.722;10.892;2023-05-29T00:41:49;12.80;1.00
5304;DHT22;2674;49.722;10.892;2023-05-29T00:44:21;12.80;1.00
5304;DHT22;2674;49.722;10.892;2023-05-29T00:46:49;12.70;1.00
5304;DHT22;2674;49.722;10.892;2023-05-29T00:49:16;12.70;1.00
5304;DHT22;2674;49.722;10.892;2023-05-29T00:51:43;12.70;1.00
5304;DHT22;2674;49.722;10.892;2023-05-29T00:54:12;12.60;1.00
5304;DHT22;2674;49.722;10.892;2023-05-29T00:56:42;12.60;1.00
5304;DHT22;2674;49.722;10.892;2023-05-29T00:59:10;12.60;1.00
5304;DHT22;2674;49.722;10.892;2023-05-29T01:01:36;12.60;1.00
5304;DHT22;2674;49.722;10.892;2023-05-29T01:04:04;12.50;1.00
5304;DHT22;2674;49.722;10.892;2023-05-29T01:06:32;12.50;1.00
5304;DHT22;2674;49.722;10.892;2023-05-29T01:08:58;12.60;1.00
5304;DHT22;2674;49.722;10.892;2023-05-29T01:25:58;12.30;1.00
5304;DHT22;2674;49.722;10.892;2023-05-29T01:28:33;12.30;1.00
5304;DHT22;2674;49.722;10.892;2023-05-29T01:31:04;12.20;1.00
5304;DHT22;2674;49.722;10.892;2023-05-29T01:33:30;12.10;1.00
5304;DHT22;2674;49.722;10.892;2023-05-29T01:35:55;12.10;1.00
5304;DHT22;2674;49.722;10.892;2023-05-29T01:38:21;12.00;1.00
5304;DHT22;2674;49.722;10.892;2023-05-29T01:40:48;11.90;1.00
5304;DHT22;2674;49.722;10.892;2023-05-29T01:43:14;11.90;1.00
5304;DHT22;2674;49.722;10.892;2023-05-29T01:45:40;11.80;1.00
5304;DHT22;2674;49.722;10.892;2023-05-29T01:48:06;11.70;1.00
5304;DHT22;2674;49.722;10.892;2023-05-29T01:50:32;11.70;1.00
5304;DHT22;2674;49.722;10.892;2023-05-29T01:52:59;11.60;1.00
5304;DHT22;2674;49.722;10.892;2023-05-29T01:55:25;11.50;1.00
5304;DHT22;2674;49.722;10.892;2023-05-29T01:57:51;11.50;1.00
5304;DHT22;2674;49.722;10.892;2023-05-29T02:00:18;11.40;1.00
5304;DHT22;2674;49.722;10.892;2023-05-29T02:02:44;11.40;1.00
5304;DHT22;2674;49.722;10.892;2023-05-29T02:05:10;11.30;1.00
5304;DHT22;2674;49.722;10.892;2023-05-29T02:07:36;11.30;1.00
5304;DHT22;2674;49.722;10.892;2023-05-29T02:10:03;11.30;1.00
5304;DHT22;2674;49.722;10.892;2023-05-29T02:12:29;11.20;1.00
5304;DHT22;2674;49.722;10.892;2023-05-29T02:14:55;11.20;1.00
5304;DHT22;2674;49.722;10.892;2023-05-29T02:17:22;11.20;1.00
5304;DHT22;2674;49.722;10.892;2023-05-29T02:19:48;11.20;1.00
5304;DHT22;2674;49.722;10.892;2023-05-29T02:22:14;11.20;1.00
5304;DHT22;2674;49.722;10.892;2023-05-29T02:24:39;11.20;1.00
5304;DHT22;2674;49.722;10.892;2023-05-29T02:27:05;11.20;1.00
5304;DHT22;2674;49.722;10.892;2023-05-29T02:29:32;11.20;1.00
5304;DHT22;2674;49.722;10.892;2023-05-29T02:31:58;11.20;1.00
5304;DHT22;2674;49.722;10.892;2023-05-29T02:34:23;11.10;1.00
5304;DHT22;2674;49.722;10.892;2023-05-29T02:36:50;11.10;1.00
5304;DHT22;2674;49.722;10.892;2023-05-29T02:39:20;11.00;1.00
5304;DHT22;2674;49.722;10.892;2023-05-29T02:41:46;11.00;1.00
5304;DHT22;2674;49.722;10.892;2023-05-29T02:44:11;10.90;1.00
5304;DHT22;2674;49.722;10.892;2023-05-29T02:46:37;10.80;1.00
5304;DHT22;2674;49.722;10.892;2023-05-29T02:49:03;10.80;1.00
5304;DHT22;2674;49.722;10.892;2023-05-29T02:51:29;10.90;1.00
5304;DHT22;2674;49.722;10.892;2023-05-29T02:53:55;10.80;1.00
5304;DHT22;2674;49.722;10.892;2023-05-29T02:56:21;10.80;1.00
5304;DHT22;2674;49.722;10.892;2023-05-29T02:58:50;10.80;1.00
5304;DHT22;2674;49.722;10.892;2023-05-29T03:01:16;10.80;1.00
5304;DHT22;2674;49.722;10.892;2023-05-29T03:03:42;10.80;1.00
5304;DHT22;2674;49.722;10.892;2023-05-29T03:06:08;10.80;1.00
5304;DHT22;2674;49.722;10.892;2023-05-29T03:08:36;10.70;1.00
5304;DHT22;2674;49.722;10.892;2023-05-29T03:11:12;10.70;1.00
5304;DHT22;2674;49.722;10.892;2023-05-29T03:13:39;10.70;1.00
5304;DHT22;2674;49.722;10.892;2023-05-29T03:16:05;10.70;1.00
5304;DHT22;2674;49.722;10.892;2023-05-29T03:18:31;10.60;1.00
5304;DHT22;2674;49.722;10.892;2023-05-29T03:20:57;10.50;1.00
5304;DHT22;2674;49.722;10.892;2023-05-29T03:23:23;10.50;1.00
5304;DHT22;2674;49.722;10.892;2023-05-29T03:25:48;10.40;1.00
5304;DHT22;2674;49.722;10.892;2023-05-29T03:28:14;10.40;1.00
5304;DHT22;2674;49.722;10.892;2023-05-29T03:30:40;10.40;1.00
5304;DHT22;2674;49.722;10.892;2023-05-29T03:33:06;10.30;1.00
5304;DHT22;2674;49.722;10.892;2023-05-29T03:35:32;10.30;1.00
5304;DHT22;2674;49.722;10.892;2023-05-29T03:37:58;10.30;1.00
5304;DHT22;2674;49.722;10.892;2023-05-29T03:40:24;10.30;1.00
5304;DHT22;2674;49.722;10.892;2023-05-29T03:42:50;10.30;1.00
5304;DHT22;2674;49.722;10.892;2023-05-29T03:45:16;10.30;1.00
5304;DHT22;2674;49.722;10.892;2023-05-29T03:47:42;10.30;1.00
5304;DHT22;2674;49.722;10.892;2023-05-29T03:50:08;10.30;1.00
5304;DHT22;2674;49.722;10.892;2023-05-29T03:52:33;10.30;1.00
5304;DHT22;2674;49.722;10.892;2023-05-29T03:54:59;10.30;1.00
5304;DHT22;2674;49.722;10.892;2023-05-29T03:57:25;10.30;1.00
5304;DHT22;2674;49.722;10.892;2023-05-29T03:59:52;10.30;1.00
5304;DHT22;2674;49.722;10.892;2023-05-29T04:02:18;10.40;1.00
5304;DHT22;2674;49.722;10.892;2023-05-29T04:04:43;10.40;1.00
5304;DHT22;2674;49.722;10.892;2023-05-29T04:07:10;10.40;1.00
5304;DHT22;2674;49.722;10.892;2023-05-29T04:09:36;10.40;1.00
5304;DHT22;2674;49.722;10.892;2023-05-29T04:12:02;10.40;1.00
5304;DHT22;2674;49.722;10.892;2023-05-29T04:14:28;10.40;1.00
5304;DHT22;2674;49.722;10.892;2023-05-29T04:16:54;10.50;1.00
5304;DHT22;2674;49.722;10.892;2023-05-29T04:19:20;10.50;1.00
5304;DHT22;2674;49.722;10.892;2023-05-29T04:21:46;10.50;1.00
5304;DHT22;2674;49.722;10.892;2023-05-29T04:24:16;10.60;1.00
5304;DHT22;2674;49.722;10.892;2023-05-29T04:26:42;10.80;1.00
5304;DHT22;2674;49.722;10.892;2023-05-29T04:29:09;11.10;1.00
5304;DHT22;2674;49.722;10.892;2023-05-29T04:31:34;11.40;1.00
5304;DHT22;2674;49.722;10.892;2023-05-29T04:34:03;11.80;1.00
5304;DHT22;2674;49.722;10.892;2023-05-29T04:36:30;12.20;1.00
5304;DHT22;2674;49.722;10.892;2023-05-29T04:38:58;12.60;1.00
5304;DHT22;2674;49.722;10.892;2023-05-29T04:41:25;13.00;1.00
5304;DHT22;2674;49.722;10.892;2023-05-29T04:43:58;13.30;1.00
5304;DHT22;2674;49.722;10.892;2023-05-29T04:46:24;13.70;1.00
5304;DHT22;2674;49.722;10.892;2023-05-29T04:48:51;13.90;1.00
5304;DHT22;2674;49.722;10.892;2023-05-29T04:51:20;14.20;1.00
5304;DHT22;2674;49.722;10.892;2023-05-29T04:53:49;14.30;1.00
5304;DHT22;2674;49.722;10.892;2023-05-29T04:56:17;14.50;1.00
5304;DHT22;2674;49.722;10.892;2023-05-29T04:58:45;14.70;1.00
5304;DHT22;2674;49.722;10.892;2023-05-29T05:01:11;15.00;1.00
5304;DHT22;2674;49.722;10.892;2023-05-29T05:03:43;15.30;1.00
5304;DHT22;2674;49.722;10.892;2023-05-29T05:06:09;15.60;1.00
5304;DHT22;2674;49.722;10.892;2023-05-29T05:08:35;15.80;1.00
5304;DHT22;2674;49.722;10.892;2023-05-29T05:11:01;16.10;1.00
5304;DHT22;2674;49.722;10.892;2023-05-29T05:13:27;16.40;1.00
5304;DHT22;2674;49.722;10.892;2023-05-29T05:15:53;16.60;1.00
5304;DHT22;2674;49.722;10.892;2023-05-29T05:18:19;16.80;1.00
5304;DHT22;2674;49.722;10.892;2023-05-29T05:20:45;16.90;1.00
5304;DHT22;2674;49.722;10.892;2023-05-29T05:23:11;17.00;1.00
5304;DHT22;2674;49.722;10.892;2023-05-29T05:25:37;17.10;1.00
5304;DHT22;2674;49.722;10.892;2023-05-29T05:28:04;17.20;1.00
5304;DHT22;2674;49.722;10.892;2023-05-29T05:30:33;17.30;1.00
5304;DHT22;2674;49.722;10.892;2023-05-29T05:32:59;17.40;1.00
5304;DHT22;2674;49.722;10.892;2023-05-29T05:35:25;17.40;1.00
5304;DHT22;2674;49.722;10.892;2023-05-29T05:37:51;17.50;1.00
5304;DHT22;2674;49.722;10.892;2023-05-29T05:40:16;17.60;1.00
5304;DHT22;2674;49.722;10.892;2023-05-29T05:42:42;17.60;1.00
5304;DHT22;2674;49.722;10.892;2023-05-29T05:45:08;17.60;1.00
5304;DHT22;2674;49.722;10.892;2023-05-29T05:47:34;17.60;1.00
5304;DHT22;2674;49.722;10.892;2023-05-29T05:50:00;17.60;1.00
5304;DHT22;2674;49.722;10.892;2023-05-29T05:52:26;17.70;1.00
5304;DHT22;2674;49.722;10.892;2023-05-29T05:54:56;17.80;1.00
5304;DHT22;2674;49.722;10.892;2023-05-29T05:57:22;17.90;1.00
5304;DHT22;2674;49.722;10.892;2023-05-29T05:59:47;17.90;1.00
5304;DHT22;2674;49.722;10.892;2023-05-29T06:02:13;17.90;1.00
5304;DHT22;2674;49.722;10.892;2023-05-29T06:04:40;18.00;1.00
5304;DHT22;2674;49.722;10.892;2023-05-29T06:07:06;18.00;1.00
5304;DHT22;2674;49.722;10.892;2023-05-29T06:09:32;18.10;1.00
5304;DHT22;2674;49.722;10.892;2023-05-29T06:11:58;18.10;1.00
5304;DHT22;2674;49.722;10.892;2023-05-29T06:14:24;18.20;1.00
5304;DHT22;2674;49.722;10.892;2023-05-29T06:16:51;18.30;1.00
5304;DHT22;2674;49.722;10.892;2023-05-29T06:19:16;18.40;1.00
5304;DHT22;2674;49.722;10.892;2023-05-29T06:21:42;18.60;1.00
5304;DHT22;2674;49.722;10.892;2023-05-29T06:24:08;18.70;1.00
5304;DHT22;2674;49.722;10.892;2023-05-29T06:26:34;18.70;1.00
5304;DHT22;2674;49.722;10.892;2023-05-29T06:29:00;18.80;1.00
5304;DHT22;2674;49.722;10.892;2023-05-29T06:31:26;18.80;1.00
5304;DHT22;2674;49.722;10.892;2023-05-29T06:33:52;19.00;1.00
5304;DHT22;2674;49.722;10.892;2023-05-29T06:36:17;19.00;1.00
5304;DHT22;2674;49.722;10.892;2023-05-29T06:38:50;19.20;1.00
5304;DHT22;2674;49.722;10.892;2023-05-29T06:41:16;19.30;1.00
5304;DHT22;2674;49.722;10.892;2023-05-29T06:43:42;19.50;1.00
5304;DHT22;2674;49.722;10.892;2023-05-29T06:46:08;19.50;1.00
5304;DHT22;2674;49.722;10.892;2023-05-29T06:48:34;19.50;1.00
5304;DHT22;2674;49.722;10.892;2023-05-29T06:51:01;19.30;1.00
5304;DHT22;2674;49.722;10.892;2023-05-29T06:53:29;19.50;1.00
5304;DHT22;2674;49.722;10.892;2023-05-29T06:55:55;19.50;1.00
5304;DHT22;2674;49.722;10.892;2023-05-29T06:58:20;19.50;1.00
5304;DHT22;2674;49.722;10.892;2023-05-29T07:00:46;19.40;1.00
5304;DHT22;2674;49.722;10.892;2023-05-29T07:03:12;19.30;1.00
5304;DHT22;2674;49.722;10.892;2023-05-29T07:05:38;19.40;1.00
5304;DHT22;2674;49.722;10.892;2023-05-29T07:08:04;19.50;1.00
5304;DHT22;2674;49.722;10.892;2023-05-29T07:10:29;19.60;1.00
5304;DHT22;2674;49.722;10.892;2023-05-29T07:12:55;19.60;1.00
5304;DHT22;2674;49.722;10.892;2023-05-29T07:15:21;19.60;1.00
5304;DHT22;2674;49.722;10.892;2023-05-29T07:17:47;19.60;1.00
5304;DHT22;2674;49.722;10.892;2023-05-29T07:20:12;19.80;1.00
5304;DHT22;2674;49.722;10.892;2023-05-29T07:22:40;20.00;1.00
5304;DHT22;2674;49.722;10.892;2023-05-29T07:25:06;20.10;1.00
5304;DHT22;2674;49.722;10.892;2023-05-29T07:27:32;20.20;1.00
5304;DHT22;2674;49.722;10.892;2023-05-29T07:29:58;20.30;1.00
5304;DHT22;2674;49.722;10.892;2023-05-29T07:32:24;20.30;1.00
5304;DHT22;2674;49.722;10.892;2023-05-29T07:34:50;20.30;1.00
5304;DHT22;2674;49.722;10.892;2023-05-29T07:37:16;20.50;1.00
5304;DHT22;2674;49.722;10.892;2023-05-29T07:39:44;20.50;1.00
5304;DHT22;2674;49.722;10.892;2023-05-29T07:42:10;20.70;1.00
5304;DHT22;2674;49.722;10.892;2023-05-29T07:44:36;20.90;1.00
5304;DHT22;2674;49.722;10.892;2023-05-29T07:47:01;21.00;1.00
5304;DHT22;2674;49.722;10.892;2023-05-29T07:49:27;21.10;1.00
5304;DHT22;2674;49.722;10.892;2023-05-29T07:51:53;21.10;1.00
5304;DHT22;2674;49.722;10.892;2023-05-29T07:54:19;21.30;1.00
5304;DHT22;2674;49.722;10.892;2023-05-29T07:56:46;21.40;1.00
5304;DHT22;2674;49.722;10.892;2023-05-29T07:59:12;21.60;1.00
5304;DHT22;2674;49.722;10.892;2023-05-29T08:01:38;21.70;1.00
5304;DHT22;2674;49.722;10.892;2023-05-29T08:04:04;21.60;1.00
5304;DHT22;2674;49.722;10.892;2023-05-29T08:06:31;21.60;1.00
5304;DHT22;2674;49.722;10.892;2023-05-29T08:08:59;21.30;1.00
5304;DHT22;2674;49.722;10.892;2023-05-29T08:11:26;21.30;1.00
5304;DHT22;2674;49.722;10.892;2023-05-29T08:13:52;21.20;1.00
5304;DHT22;2674;49.722;10.892;2023-05-29T08:16:17;21.20;1.00
5304;DHT22;2674;49.722;10.892;2023-05-29T08:18:43;21.20;1.00
5304;DHT22;2674;49.722;10.892;2023-05-29T08:21:09;21.30;1.00
5304;DHT22;2674;49.722;10.892;2023-05-29T08:23:35;21.30;1.00
5304;DHT22;2674;49.722;10.892;2023-05-29T08:26:02;21.10;1.00
5304;DHT22;2674;49.722;10.892;2023-05-29T08:28:31;21.20;1.00
5304;DHT22;2674;49.722;10.892;2023-05-29T08:30:56;21.30;1.00
5304;DHT22;2674;49.722;10.892;2023-05-29T08:33:22;21.30;1.00
5304;DHT22;2674;49.722;10.892;2023-05-29T08:35:48;21.50;1.00
5304;DHT22;2674;49.722;10.892;2023-05-29T08:38:14;21.80;1.00
5304;DHT22;2674;49.722;10.892;2023-05-29T08:40:40;21.90;1.00
5304;DHT22;2674;49.722;10.892;2023-05-29T08:43:16;21.80;1.00
5304;DHT22;2674;49.722;10.892;2023-05-29T08:45:44;21.60;1.00
5304;DHT22;2674;49.722;10.892;2023-05-29T08:48:11;21.60;1.00
5304;DHT22;2674;49.722;10.892;2023-05-29T08:50:43;21.60;1.00
5304;DHT22;2674;49.722;10.892;2023-05-29T08:53:12;21.70;1.00
5304;DHT22;2674;49.722;10.892;2023-05-29T08:55:38;21.90;1.00
5304;DHT22;2674;49.722;10.892;2023-05-29T08:58:04;22.10;1.00
5304;DHT22;2674;49.722;10.892;2023-05-29T09:00:31;22.10;1.00
5304;DHT22;2674;49.722;10.892;2023-05-29T09:02:57;22.20;1.00
5304;DHT22;2674;49.722;10.892;2023-05-29T09:05:25;22.20;1.00
5304;DHT22;2674;49.722;10.892;2023-05-29T09:07:53;22.40;1.00
5304;DHT22;2674;49.722;10.892;2023-05-29T09:10:19;22.50;1.00
5304;DHT22;2674;49.722;10.892;2023-05-29T09:12:47;22.60;1.00
5304;DHT22;2674;49.722;10.892;2023-05-29T09:15:20;22.60;1.00
5304;DHT22;2674;49.722;10.892;2023-05-29T09:17:51;22.90;1.00
5304;DHT22;2674;49.722;10.892;2023-05-29T09:20:18;22.90;1.00
5304;DHT22;2674;49.722;10.892;2023-05-29T09:23:01;23.00;1.00
5304;DHT22;2674;49.722;10.892;2023-05-29T09:25:30;22.90;1.00
5304;DHT22;2674;49.722;10.892;2023-05-29T09:28:01;22.90;1.00
5304;DHT22;2674;49.722;10.892;2023-05-29T09:32:59;23.20;1.00
5304;DHT22;2674;49.722;10.892;2023-05-29T09:35:31;23.40;1.00
5304;DHT22;2674;49.722;10.892;2023-05-29T09:37:57;23.50;1.00
5304;DHT22;2674;49.722;10.892;2023-05-29T09:40:23;23.50;1.00
5304;DHT22;2674;49.722;10.892;2023-05-29T09:42:49;23.60;1.00
5304;DHT22;2674;49.722;10.892;2023-05-29T09:45:18;23.60;1.00
5304;DHT22;2674;49.722;10.892;2023-05-29T09:47:44;23.80;1.00
5304;DHT22;2674;49.722;10.892;2023-05-29T09:50:18;23.90;1.00
5304;DHT22;2674;49.722;10.892;2023-05-29T09:52:48;24.00;1.00
5304;DHT22;2674;49.722;10.892;2023-05-29T09:55:19;23.60;1.00
5304;DHT22;2674;49.722;10.892;2023-05-29T09:57:47;23.40;1.00
5304;DHT22;2674;49.722;10.892;2023-05-29T10:00:15;23.10;1.00
5304;DHT22;2674;49.722;10.892;2023-05-29T10:02:42;23.00;1.00
5304;DHT22;2674;49.722;10.892;2023-05-29T10:05:09;22.80;1.00
5304;DHT22;2674;49.722;10.892;2023-05-29T10:07:37;22.90;1.00
5304;DHT22;2674;49.722;10.892;2023-05-29T10:10:06;23.00;1.00
5304;DHT22;2674;49.722;10.892;2023-05-29T10:12:38;23.20;1.00
5304;DHT22;2674;49.722;10.892;2023-05-29T10:15:11;23.30;1.00
5304;DHT22;2674;49.722;10.892;2023-05-29T10:17:38;23.50;1.00
5304;DHT22;2674;49.722;10.892;2023-05-29T10:20:06;23.70;1.00
5304;DHT22;2674;49.722;10.892;2023-05-29T10:22:39;23.50;1.00
5304;DHT22;2674;49.722;10.892;2023-05-29T10:25:07;23.70;1.00
5304;DHT22;2674;49.722;10.892;2023-05-29T10:27:35;23.90;1.00
5304;DHT22;2674;49.722;10.892;2023-05-29T10:38:35;24.20;1.00
5304;DHT22;2674;49.722;10.892;2023-05-29T10:43:56;24.00;1.00
5304;DHT22;2674;49.722;10.892;2023-05-29T10:49:20;23.80;1.00
5304;DHT22;2674;49.722;10.892;2023-05-29T10:51:47;24.00;1.00
5304;DHT22;2674;49.722;10.892;2023-05-29T10:54:14;24.20;1.00
5304;DHT22;2674;49.722;10.892;2023-05-29T10:56:40;24.20;1.00
5304;DHT22;2674;49.722;10.892;2023-05-29T10:59:09;24.20;1.00
5304;DHT22;2674;49.722;10.892;2023-05-29T11:01:38;24.30;1.00
5304;DHT22;2674;49.722;10.892;2023-05-29T11:06:51;25.00;1.00
5304;DHT22;2674;49.722;10.892;2023-05-29T11:09:31;25.00;1.00
5304;DHT22;2674;49.722;10.892;2023-05-29T11:15:11;24.40;1.00
5304;DHT22;2674;49.722;10.892;2023-05-29T11:20:07;24.50;1.00
5304;DHT22;2674;49.722;10.892;2023-05-29T11:25:14;24.10;1.00
5304;DHT22;2674;49.722;10.892;2023-05-29T11:27:40;24.20;1.00
5304;DHT22;2674;49.722;10.892;2023-05-29T11:30:07;24.20;1.00
5304;DHT22;2674;49.722;10.892;2023-05-29T11:32:34;24.40;1.00
5304;DHT22;2674;49.722;10.892;2023-05-29T11:35:07;24.70;1.00
5304;DHT22;2674;49.722;10.892;2023-05-29T11:37:35;24.80;1.00
5304;DHT22;2674;49.722;10.892;2023-05-29T11:40:06;25.00;1.00
5304;DHT22;2674;49.722;10.892;2023-05-29T11:42:44;25.20;1.00
5304;DHT22;2674;49.722;10.892;2023-05-29T11:45:14;25.00;1.00
5304;DHT22;2674;49.722;10.892;2023-05-29T11:47:56;25.10;1.00
5304;DHT22;2674;49.722;10.892;2023-05-29T11:50:30;25.30;1.00
5304;DHT22;2674;49.722;10.892;2023-05-29T11:52:58;25.10;1.00
5304;DHT22;2674;49.722;10.892;2023-05-29T11:55:25;25.10;1.00
5304;DHT22;2674;49.722;10.892;2023-05-29T11:57:56;25.00;1.00
5304;DHT22;2674;49.722;10.892;2023-05-29T12:00:22;24.90;1.00
5304;DHT22;2674;49.722;10.892;2023-05-29T12:02:48;24.90;1.00
5304;DHT22;2674;49.722;10.892;2023-05-29T12:05:16;24.80;1.00
5304;DHT22;2674;49.722;10.892;2023-05-29T12:07:52;25.00;1.00
5304;DHT22;2674;49.722;10.892;2023-05-29T12:10:19;25.20;1.00
5304;DHT22;2674;49.722;10.892;2023-05-29T12:12:51;25.30;1.00
5304;DHT22;2674;49.722;10.892;2023-05-29T12:15:17;25.20;1.00
5304;DHT22;2674;49.722;10.892;2023-05-29T12:17:47;25.20;1.00
5304;DHT22;2674;49.722;10.892;2023-05-29T12:20:14;25.30;1.00
5304;DHT22;2674;49.722;10.892;2023-05-29T12:22:42;25.20;1.00
5304;DHT22;2674;49.722;10.892;2023-05-29T12:25:13;25.10;1.00
5304;DHT22;2674;49.722;10.892;2023-05-29T12:27:40;25.10;1.00
5304;DHT22;2674;49.722;10.892;2023-05-29T12:32:39;25.30;1.00
5304;DHT22;2674;49.722;10.892;2023-05-29T12:35:24;25.40;1.00
5304;DHT22;2674;49.722;10.892;2023-05-29T12:38:05;25.30;1.00
5304;DHT22;2674;49.722;10.892;2023-05-29T12:40:34;25.30;1.00
5304;DHT22;2674;49.722;10.892;2023-05-29T12:43:05;25.10;1.00
5304;DHT22;2674;49.722;10.892;2023-05-29T12:45:34;25.30;1.00
5304;DHT22;2674;49.722;10.892;2023-05-29T12:48:04;25.30;1.00
5304;DHT22;2674;49.722;10.892;2023-05-29T12:50:38;25.40;1.00
5304;DHT22;2674;49.722;10.892;2023-05-29T12:53:08;25.20;1.00
5304;DHT22;2674;49.722;10.892;2023-05-29T12:55:39;25.10;1.00
5304;DHT22;2674;49.722;10.892;2023-05-29T12:58:06;25.20;1.00
5304;DHT22;2674;49.722;10.892;2023-05-29T13:00:40;25.20;1.00
5304;DHT22;2674;49.722;10.892;2023-05-29T13:03:06;25.40;1.00
5304;DHT22;2674;49.722;10.892;2023-05-29T13:05:33;25.40;1.00
5304;DHT22;2674;49.722;10.892;2023-05-29T13:07:59;25.30;1.00
5304;DHT22;2674;49.722;10.892;2023-05-29T13:10:26;25.20;1.00
5304;DHT22;2674;49.722;10.892;2023-05-29T13:12:54;25.40;1.00
5304;DHT22;2674;49.722;10.892;2023-05-29T13:15:24;25.50;1.00
5304;DHT22;2674;49.722;10.892;2023-05-29T13:17:50;25.20;1.00
5304;DHT22;2674;49.722;10.892;2023-05-29T13:20:17;25.50;1.00
5304;DHT22;2674;49.722;10.892;2023-05-29T13:22:44;25.60;1.00
5304;DHT22;2674;49.722;10.892;2023-05-29T13:25:13;25.80;1.00
5304;DHT22;2674;49.722;10.892;2023-05-29T13:27:41;25.80;1.00
5304;DHT22;2674;49.722;10.892;2023-05-29T13:30:08;25.80;1.00
5304;DHT22;2674;49.722;10.892;2023-05-29T13:32:34;25.80;1.00
5304;DHT22;2674;49.722;10.892;2023-05-29T13:35:00;26.00;1.00
5304;DHT22;2674;49.722;10.892;2023-05-29T13:37:26;26.00;1.00
5304;DHT22;2674;49.722;10.892;2023-05-29T13:39:53;25.90;1.00
5304;DHT22;2674;49.722;10.892;2023-05-29T13:42:19;26.10;1.00
5304;DHT22;2674;49.722;10.892;2023-05-29T13:44:46;26.40;1.00
5304;DHT22;2674;49.722;10.892;2023-05-29T13:47:12;26.30;1.00
5304;DHT22;2674;49.722;10.892;2023-05-29T13:49:38;26.50;1.00
5304;DHT22;2674;49.722;10.892;2023-05-29T13:52:05;26.80;1.00
5304;DHT22;2674;49.722;10.892;2023-05-29T13:54:31;26.90;1.00
5304;DHT22;2674;49.722;10.892;2023-05-29T13:57:01;26.60;1.00
5304;DHT22;2674;49.722;10.892;2023-05-29T13:59:29;26.80;1.00
5304;DHT22;2674;49.722;10.892;2023-05-29T14:01:55;26.70;1.00
5304;DHT22;2674;49.722;10.892;2023-05-29T14:04:20;27.00;1.00
5304;DHT22;2674;49.722;10.892;2023-05-29T14:06:46;27.10;1.00
5304;DHT22;2674;49.722;10.892;2023-05-29T14:09:12;26.80;1.00
5304;DHT22;2674;49.722;10.892;2023-05-29T14:11:39;26.80;1.00
5304;DHT22;2674;49.722;10.892;2023-05-29T14:14:05;26.80;1.00
5304;DHT22;2674;49.722;10.892;2023-05-29T14:16:31;26.70;1.00
5304;DHT22;2674;49.722;10.892;2023-05-29T14:18:58;26.90;1.00
5304;DHT22;2674;49.722;10.892;2023-05-29T14:21:24;26.80;1.00
5304;DHT22;2674;49.722;10.892;2023-05-29T14:23:50;26.90;1.00
5304;DHT22;2674;49.722;10.892;2023-05-29T14:26:16;27.00;1.00
5304;DHT22;2674;49.722;10.892;2023-05-29T14:28:44;27.20;1.00
5304;DHT22;2674;49.722;10.892;2023-05-29T14:31:10;27.20;1.00
5304;DHT22;2674;49.722;10.892;2023-05-29T14:33:36;27.00;1.00
5304;DHT22;2674;49.722;10.892;2023-05-29T14:36:02;27.00;1.00
5304;DHT22;2674;49.722;10.892;2023-05-29T14:38:28;26.50;1.00
5304;DHT22;2674;49.722;10.892;2023-05-29T14:40:54;26.60;1.00
5304;DHT22;2674;49.722;10.892;2023-05-29T14:43:20;26.80;1.00
5304;DHT22;2674;49.722;10.892;2023-05-29T14:45:46;27.00;1.00
5304;DHT22;2674;49.722;10.892;2023-05-29T14:48:11;27.10;1.00
5304;DHT22;2674;49.722;10.892;2023-05-29T14:50:37;27.20;1.00
5304;DHT22;2674;49.722;10.892;2023-05-29T14:53:03;26.80;1.00
5304;DHT22;2674;49.722;10.892;2023-05-29T14:55:29;26.80;1.00
5304;DHT22;2674;49.722;10.892;2023-05-29T14:57:57;27.00;1.00
5304;DHT22;2674;49.722;10.892;2023-05-29T15:00:23;27.20;1.00
5304;DHT22;2674;49.722;10.892;2023-05-29T15:02:49;26.80;1.00
5304;DHT22;2674;49.722;10.892;2023-05-29T15:05:15;26.90;1.00
5304;DHT22;2674;49.722;10.892;2023-05-29T15:07:41;27.10;1.00
5304;DHT22;2674;49.722;10.892;2023-05-29T15:10:07;27.30;1.00
5304;DHT22;2674;49.722;10.892;2023-05-29T15:12:33;27.30;1.00
5304;DHT22;2674;49.722;10.892;2023-05-29T15:14:59;26.90;1.00
5304;DHT22;2674;49.722;10.892;2023-05-29T15:17:30;26.70;1.00
5304;DHT22;2674;49.722;10.892;2023-05-29T15:19:56;26.80;1.00
5304;DHT22;2674;49.722;10.892;2023-05-29T15:22:22;27.00;1.00
5304;DHT22;2674;49.722;10.892;2023-05-29T15:24:48;26.90;1.00
5304;DHT22;2674;49.722;10.892;2023-05-29T15:27:14;27.10;1.00
5304;DHT22;2674;49.722;10.892;2023-05-29T15:29:41;26.70;1.00
5304;DHT22;2674;49.722;10.892;2023-05-29T15:32:08;26.70;1.00
5304;DHT22;2674;49.722;10.892;2023-05-29T15:34:34;26.70;1.00
5304;DHT22;2674;49.722;10.892;2023-05-29T15:37:01;26.40;1.00
5304;DHT22;2674;49.722;10.892;2023-05-29T15:39:27;26.00;1.00
5304;DHT22;2674;49.722;10.892;2023-05-29T15:41:53;26.10;1.00
5304;DHT22;2674;49.722;10.892;2023-05-29T15:44:18;26.20;1.00
5304;DHT22;2674;49.722;10.892;2023-05-29T15:46:44;26.10;1.00
5304;DHT22;2674;49.722;10.892;2023-05-29T15:49:10;26.00;1.00
5304;DHT22;2674;49.722;10.892;2023-05-29T15:51:35;26.00;1.00
5304;DHT22;2674;49.722;10.892;2023-05-29T15:54:06;26.10;1.00
5304;DHT22;2674;49.722;10.892;2023-05-29T15:56:32;25.90;1.00
5304;DHT22;2674;49.722;10.892;2023-05-29T15:58:58;25.90;1.00
5304;DHT22;2674;49.722;10.892;2023-05-29T16:01:24;25.80;1.00
5304;DHT22;2674;49.722;10.892;2023-05-29T16:03:49;25.90;1.00
5304;DHT22;2674;49.722;10.892;2023-05-29T16:06:15;25.80;1.00
5304;DHT22;2674;49.722;10.892;2023-05-29T16:08:41;25.80;1.00
5304;DHT22;2674;49.722;10.892;2023-05-29T16:11:07;26.00;1.00
5304;DHT22;2674;49.722;10.892;2023-05-29T16:13:33;26.20;1.00
5304;DHT22;2674;49.722;10.892;2023-05-29T16:16:00;26.30;1.00
5304;DHT22;2674;49.722;10.892;2023-05-29T16:18:27;25.90;1.00
5304;DHT22;2674;49.722;10.892;2023-05-29T16:20:53;25.60;1.00
5304;DHT22;2674;49.722;10.892;2023-05-29T16:23:19;25.40;1.00
5304;DHT22;2674;49.722;10.892;2023-05-29T16:25:45;25.70;1.00
5304;DHT22;2674;49.722;10.892;2023-05-29T16:28:11;25.60;1.00
5304;DHT22;2674;49.722;10.892;2023-05-29T16:30:38;25.30;1.00
5304;DHT22;2674;49.722;10.892;2023-05-29T16:33:05;25.10;1.00
5304;DHT22;2674;49.722;10.892;2023-05-29T16:35:31;25.10;1.00
5304;DHT22;2674;49.722;10.892;2023-05-29T16:37:58;25.30;1.00
5304;DHT22;2674;49.722;10.892;2023-05-29T16:40:24;25.50;1.00
5304;DHT22;2674;49.722;10.892;2023-05-29T16:42:50;25.30;1.00
5304;DHT22;2674;49.722;10.892;2023-05-29T16:45:16;25.10;1.00